createdAt,value
2022-09-11T00:00:06.882Z,5.90
2022-09-11T00:01:06.857Z,5.50
2022-09-11T00:02:06.949Z,5.20
2022-09-11T00:03:06.862Z,5.00
2022-09-11T00:04:06.844Z,5.40
2022-09-11T00:05:06.819Z,4.80
2022-09-11T00:06:06.815Z,5.10
2022-09-11T00:07:06.816Z,5.80
2022-09-11T00:08:06.786Z,4.70
2022-09-11T00:09:06.769Z,5.50
2022-09-11T00:10:06.757Z,5.70
2022-09-11T00:11:06.750Z,5.40
2022-09-11T00:12:06.777Z,5.00
2022-09-11T00:13:06.729Z,5.50
2022-09-11T00:14:06.709Z,5.20
2022-09-11T00:15:06.716Z,5.20
2022-09-11T00:16:06.812Z,5.70
2022-09-11T00:17:06.676Z,4.90
2022-09-11T00:18:06.670Z,5.80
2022-09-11T00:19:06.701Z,5.10
2022-09-11T00:20:06.664Z,5.60
2022-09-11T00:21:06.637Z,5.90
2022-09-11T00:22:06.647Z,5.80
2022-09-11T00:23:06.614Z,5.70
2022-09-11T00:24:06.603Z,5.30
2022-09-11T00:25:06.595Z,5.90
2022-09-11T00:26:06.590Z,5.70
2022-09-11T00:27:06.571Z,6.20
2022-09-11T00:28:06.590Z,5.90
2022-09-11T00:29:06.550Z,6.50
2022-09-11T00:30:06.587Z,5.80
2022-09-11T00:31:06.567Z,5.30
2022-09-11T00:32:06.525Z,6.60
2022-09-11T00:33:06.506Z,5.90
2022-09-11T00:34:06.532Z,6.20
2022-09-11T00:35:06.500Z,6.60
2022-09-11T00:36:06.485Z,6.80
2022-09-11T00:37:06.485Z,6.30
2022-09-11T00:38:06.486Z,6.00
2022-09-11T00:39:06.439Z,6.10
2022-09-11T00:40:06.505Z,7.20
2022-09-11T00:41:06.421Z,6.70
2022-09-11T00:42:06.432Z,6.50
2022-09-11T00:43:06.391Z,6.30
2022-09-11T00:44:06.392Z,7.20
2022-09-11T00:45:06.387Z,6.50
2022-09-11T00:46:06.457Z,7.00
2022-09-11T00:47:06.343Z,8.00
2022-09-11T00:48:06.350Z,7.40
2022-09-11T00:49:06.345Z,6.00
2022-09-11T00:50:06.323Z,6.40
2022-09-11T00:51:06.308Z,6.90
2022-09-11T00:52:06.342Z,6.90
2022-09-11T00:53:06.283Z,6.50
2022-09-11T00:54:06.282Z,6.50
2022-09-11T00:55:06.260Z,6.50
2022-09-11T00:56:06.261Z,7.20
2022-09-11T00:57:06.256Z,7.20
2022-09-11T00:58:06.241Z,7.10
2022-09-11T00:59:06.229Z,6.70
2022-09-11T01:00:06.210Z,6.40
2022-09-11T01:01:06.255Z,7.10
2022-09-11T01:02:06.265Z,7.10
2022-09-11T01:03:06.180Z,7.70
2022-09-11T01:04:06.172Z,7.60
2022-09-11T01:05:06.154Z,7.20
2022-09-11T01:06:06.150Z,7.30
2022-09-11T01:07:06.140Z,7.20
2022-09-11T01:08:06.139Z,7.20
2022-09-11T01:09:06.125Z,7.70
2022-09-11T01:10:06.097Z,7.50
2022-09-11T01:11:06.086Z,7.40
2022-09-11T01:12:06.070Z,7.00
2022-09-11T01:13:06.074Z,7.10
2022-09-11T01:14:06.059Z,7.20
2022-09-11T01:15:06.041Z,7.20
2022-09-11T01:16:06.132Z,7.40
2022-09-11T01:17:06.024Z,7.70
2022-09-11T01:18:06.009Z,8.20
2022-09-11T01:19:06.028Z,7.80
2022-09-11T01:20:05.994Z,7.40
2022-09-11T01:21:05.967Z,7.50
2022-09-11T01:22:05.962Z,7.80
2022-09-11T01:23:05.998Z,8.20
2022-09-11T01:24:05.962Z,8.00
2022-09-11T01:25:05.946Z,7.60
2022-09-11T01:26:05.914Z,7.30
2022-09-11T01:27:05.905Z,8.50
2022-09-11T01:28:05.927Z,7.50
2022-09-11T01:29:05.887Z,7.40
2022-09-11T01:30:10.878Z,7.60
2022-09-11T01:31:06.927Z,7.10
2022-09-11T01:32:05.861Z,6.90
2022-09-11T01:33:05.846Z,7.60
2022-09-11T01:34:05.839Z,6.90
2022-09-11T01:35:05.827Z,6.80
2022-09-11T01:36:05.811Z,7.40
2022-09-11T01:37:05.799Z,9.40
2022-09-11T01:38:05.802Z,7.20
2022-09-11T01:39:05.776Z,8.10
2022-09-11T01:40:05.818Z,7.00
2022-09-11T01:41:05.776Z,8.30
2022-09-11T01:42:05.737Z,7.60
2022-09-11T01:43:05.748Z,7.80
2022-09-11T01:44:05.719Z,8.20
2022-09-11T01:45:05.712Z,8.90
2022-09-11T01:46:05.733Z,8.70
2022-09-11T01:47:05.701Z,9.70
2022-09-11T01:48:05.716Z,9.30
2022-09-11T01:49:05.669Z,9.10
2022-09-11T01:50:05.690Z,10.00
2022-09-11T01:51:05.648Z,9.90
2022-09-11T01:52:05.640Z,10.50
2022-09-11T01:53:05.664Z,10.70
2022-09-11T01:54:05.606Z,11.40
2022-09-11T01:55:05.593Z,11.10
2022-09-11T01:56:05.611Z,9.80
2022-09-11T01:57:05.603Z,10.00
2022-09-11T01:58:05.558Z,10.90
2022-09-11T01:59:05.583Z,11.10
2022-09-11T02:00:05.535Z,11.00
2022-09-11T02:01:05.608Z,10.90
2022-09-11T02:02:05.742Z,11.30
2022-09-11T02:03:05.508Z,11.00
2022-09-11T02:04:05.499Z,10.40
2022-09-11T02:05:05.493Z,11.60
2022-09-11T02:06:05.469Z,11.40
2022-09-11T02:07:05.459Z,10.90
2022-09-11T02:08:05.468Z,12.80
2022-09-11T02:09:05.488Z,11.80
2022-09-11T02:10:05.447Z,11.80
2022-09-11T02:11:05.448Z,11.50
2022-09-11T02:12:05.434Z,12.10
2022-09-11T02:13:05.393Z,12.00
2022-09-11T02:14:05.399Z,11.90
2022-09-11T02:15:05.391Z,12.70
2022-09-11T02:16:05.448Z,12.40
2022-09-11T02:17:05.396Z,12.00
2022-09-11T02:18:05.337Z,11.70
2022-09-11T02:19:05.357Z,12.00
2022-09-11T02:20:05.327Z,12.30
2022-09-11T02:21:05.325Z,12.00
2022-09-11T02:22:05.295Z,12.20
2022-09-11T02:23:05.295Z,12.20
2022-09-11T02:24:05.289Z,12.00
2022-09-11T02:25:05.278Z,12.30
2022-09-11T02:26:05.258Z,11.60
2022-09-11T02:27:05.259Z,11.80
2022-09-11T02:28:05.261Z,13.20
2022-09-11T02:29:05.219Z,11.90
2022-09-11T02:30:05.217Z,12.90
2022-09-11T02:31:05.259Z,12.60
2022-09-11T02:32:05.191Z,11.60
2022-09-11T02:33:05.198Z,12.30
2022-09-11T02:34:05.190Z,12.60
2022-09-11T02:35:05.151Z,12.80
2022-09-11T02:36:05.143Z,12.60
2022-09-11T02:37:05.145Z,12.10
2022-09-11T02:38:05.142Z,13.90
2022-09-11T02:39:05.137Z,14.40
2022-09-11T02:40:05.131Z,12.90
2022-09-11T02:41:05.095Z,13.70
2022-09-11T02:42:05.087Z,14.00
2022-09-11T02:43:05.088Z,15.10
2022-09-11T02:44:05.073Z,14.00
2022-09-11T02:45:05.070Z,14.10
2022-09-11T02:46:05.052Z,15.30
2022-09-11T02:47:05.017Z,14.00
2022-09-11T02:48:05.029Z,15.00
2022-09-11T02:49:05.002Z,14.40
2022-09-11T02:50:04.992Z,16.40
2022-09-11T02:51:04.994Z,15.40
2022-09-11T02:52:04.970Z,15.40
2022-09-11T02:53:04.959Z,16.50
2022-09-11T02:54:04.949Z,16.30
2022-09-11T02:55:04.942Z,17.20
2022-09-11T02:56:04.943Z,17.20
2022-09-11T02:57:04.915Z,17.70
2022-09-11T02:58:04.915Z,16.80
2022-09-11T02:59:04.912Z,16.10
2022-09-11T03:00:04.901Z,17.60
2022-09-11T03:01:04.954Z,17.30
2022-09-11T03:02:04.887Z,17.90
2022-09-11T03:03:04.848Z,18.10
2022-09-11T03:04:04.831Z,18.40
2022-09-11T03:05:04.836Z,18.40
2022-09-11T03:06:04.818Z,18.50
2022-09-11T03:07:04.865Z,18.20
2022-09-11T03:08:04.789Z,17.40
2022-09-11T03:09:04.795Z,17.70
2022-09-11T03:10:04.773Z,17.30
2022-09-11T03:11:04.802Z,18.20
2022-09-11T03:12:04.767Z,17.60
2022-09-11T03:13:04.741Z,17.30
2022-09-11T03:14:04.728Z,16.70
2022-09-11T03:15:04.712Z,16.80
2022-09-11T03:16:04.816Z,17.50
2022-09-11T03:17:04.809Z,17.40
2022-09-11T03:18:04.701Z,18.50
2022-09-11T03:19:04.670Z,17.10
2022-09-11T03:20:04.660Z,18.00
2022-09-11T03:21:04.640Z,17.80
2022-09-11T03:22:04.628Z,18.40
2022-09-11T03:23:04.656Z,18.20
2022-09-11T03:24:04.615Z,18.60
2022-09-11T03:25:04.608Z,19.10
2022-09-11T03:26:04.692Z,18.00
2022-09-11T03:27:04.596Z,18.60
2022-09-11T03:28:04.568Z,18.70
2022-09-11T03:29:04.576Z,17.50
2022-09-11T03:30:04.560Z,17.60
2022-09-11T03:31:04.536Z,18.20
2022-09-11T03:32:04.543Z,18.50
2022-09-11T03:33:04.506Z,19.10
2022-09-11T03:34:04.554Z,19.00
2022-09-11T03:35:04.489Z,20.40
2022-09-11T03:36:04.485Z,18.70
2022-09-11T03:37:04.469Z,19.50
2022-09-11T03:38:04.461Z,20.80
2022-09-11T03:39:04.453Z,20.70
2022-09-11T03:40:04.500Z,19.40
2022-09-11T03:41:04.452Z,19.20
2022-09-11T03:42:04.420Z,19.00
2022-09-11T03:43:04.404Z,20.10
2022-09-11T03:44:04.391Z,18.80
2022-09-11T03:45:04.390Z,19.90
2022-09-11T03:46:04.407Z,20.10
2022-09-11T03:47:04.352Z,20.10
2022-09-11T03:48:04.373Z,20.10
2022-09-11T03:49:04.337Z,21.20
2022-09-11T03:50:04.328Z,20.00
2022-09-11T03:51:04.326Z,20.90
2022-09-11T03:52:04.307Z,20.60
2022-09-11T03:53:04.693Z,20.30
2022-09-11T03:54:04.294Z,22.60
2022-09-11T03:55:04.275Z,20.60
2022-09-11T03:56:04.303Z,21.50
2022-09-11T03:57:04.255Z,21.40
2022-09-11T03:58:04.236Z,20.30
2022-09-11T03:59:04.230Z,22.00
2022-09-11T04:00:04.217Z,22.70
2022-09-11T04:01:04.242Z,22.70
2022-09-11T04:02:04.240Z,21.70
2022-09-11T04:03:04.191Z,21.70
2022-09-11T04:04:04.204Z,22.70
2022-09-11T04:05:04.172Z,21.70
2022-09-11T04:06:04.140Z,22.50
2022-09-11T04:07:04.156Z,21.70
2022-09-11T04:08:04.127Z,22.30
2022-09-11T04:09:04.118Z,21.90
2022-09-11T04:10:04.105Z,21.90
2022-09-11T04:11:04.090Z,22.70
2022-09-11T04:12:04.100Z,22.00
2022-09-11T04:13:04.108Z,22.60
2022-09-11T04:14:04.083Z,23.00
2022-09-11T04:15:04.063Z,21.80
2022-09-11T04:16:04.090Z,22.60
2022-09-11T04:17:04.067Z,22.20
2022-09-11T04:18:05.583Z,22.90
2022-09-11T04:19:04.016Z,22.20
2022-09-11T04:20:04.021Z,22.50
2022-09-11T04:21:04.029Z,22.30
2022-09-11T04:22:03.997Z,22.20
2022-09-11T04:23:03.974Z,22.80
2022-09-11T04:24:03.956Z,23.40
2022-09-11T04:25:03.931Z,21.60
2022-09-11T04:26:03.952Z,22.20
2022-09-11T04:27:03.908Z,21.70
2022-09-11T04:28:03.928Z,22.20
2022-09-11T04:29:03.946Z,23.90
2022-09-11T04:30:03.882Z,21.50
2022-09-11T04:31:03.871Z,22.60
2022-09-11T04:32:03.891Z,20.50
2022-09-11T04:33:03.850Z,20.20
2022-09-11T04:34:03.849Z,21.00
2022-09-11T04:35:03.844Z,20.50
2022-09-11T04:36:03.858Z,20.00
2022-09-11T04:37:03.808Z,19.90
2022-09-11T04:38:03.804Z,17.90
2022-09-11T04:39:03.774Z,17.80
2022-09-11T04:40:03.802Z,18.80
2022-09-11T04:41:03.758Z,18.90
2022-09-11T04:42:03.753Z,18.80
2022-09-11T04:43:03.747Z,17.40
2022-09-11T04:44:05.555Z,18.20
2022-09-11T04:45:03.720Z,18.60
2022-09-11T04:46:03.739Z,18.80
2022-09-11T04:47:03.711Z,19.40
2022-09-11T04:48:03.719Z,19.00
2022-09-11T04:49:03.691Z,18.60
2022-09-11T04:50:03.665Z,19.70
2022-09-11T04:51:03.648Z,18.20
2022-09-11T04:52:03.657Z,19.60
2022-09-11T04:53:03.629Z,18.20
2022-09-11T04:54:03.632Z,17.20
2022-09-11T04:55:03.672Z,18.10
2022-09-11T04:56:03.585Z,18.90
2022-09-11T04:57:03.591Z,18.20
2022-09-11T04:58:03.562Z,19.80
2022-09-11T04:59:03.560Z,17.70
2022-09-11T05:00:03.557Z,20.10
2022-09-11T05:01:03.579Z,17.70
2022-09-11T05:02:03.667Z,19.90
2022-09-11T05:03:03.525Z,19.00
2022-09-11T05:04:03.506Z,19.40
2022-09-11T05:05:03.493Z,18.90
2022-09-11T05:06:03.500Z,19.30
2022-09-11T05:07:03.471Z,19.70
2022-09-11T05:08:03.479Z,19.40
2022-09-11T05:09:03.451Z,18.60
2022-09-11T05:10:03.458Z,18.50
2022-09-11T05:11:03.437Z,19.70
2022-09-11T05:12:03.415Z,18.90
2022-09-11T05:13:03.396Z,18.70
2022-09-11T05:14:03.393Z,18.80
2022-09-11T05:15:03.372Z,17.70
2022-09-11T05:16:03.459Z,18.70
2022-09-11T05:17:03.361Z,20.20
2022-09-11T05:18:03.371Z,19.40
2022-09-11T05:19:03.329Z,19.30
2022-09-11T05:20:03.361Z,19.50
2022-09-11T05:21:03.311Z,20.30
2022-09-11T05:22:03.304Z,19.20
2022-09-11T05:23:03.283Z,19.10
2022-09-11T05:24:03.319Z,20.00
2022-09-11T05:25:03.265Z,18.70
2022-09-11T05:26:03.249Z,19.80
2022-09-11T05:27:03.245Z,19.90
2022-09-11T05:28:03.251Z,19.20
2022-09-11T05:29:03.236Z,18.20
2022-09-11T05:30:03.220Z,19.10
2022-09-11T05:31:03.215Z,19.20
2022-09-11T05:32:03.200Z,19.10
2022-09-11T05:33:03.185Z,18.40
2022-09-11T05:34:03.189Z,18.20
2022-09-11T05:35:03.164Z,19.30
2022-09-11T05:36:03.163Z,20.30
2022-09-11T05:37:03.144Z,18.50
2022-09-11T05:38:03.155Z,19.80
2022-09-11T05:39:03.106Z,18.40
2022-09-11T05:40:03.163Z,19.10
2022-09-11T05:41:03.085Z,18.60
2022-09-11T05:42:03.104Z,19.30
2022-09-11T05:43:03.061Z,19.90
2022-09-11T05:44:03.062Z,19.90
2022-09-11T05:45:03.055Z,20.50
2022-09-11T05:46:03.092Z,19.50
2022-09-11T05:47:03.019Z,19.30
2022-09-11T05:48:03.038Z,20.40
2022-09-11T05:49:03.005Z,19.90
2022-09-11T05:50:02.986Z,19.70
2022-09-11T05:51:02.991Z,19.50
2022-09-11T05:52:02.963Z,19.30
2022-09-11T05:53:02.983Z,19.10
2022-09-11T05:54:02.956Z,19.60
2022-09-11T05:55:02.967Z,19.20
2022-09-11T05:56:02.946Z,18.80
2022-09-11T05:57:07.440Z,18.90
2022-09-11T05:58:02.901Z,18.40
2022-09-11T05:59:02.888Z,17.80
2022-09-11T06:00:02.896Z,17.30
2022-09-11T06:01:02.897Z,18.70
2022-09-11T06:02:02.915Z,19.00
2022-09-11T06:03:02.839Z,19.00
2022-09-11T06:04:02.851Z,19.30
2022-09-11T06:05:02.844Z,18.50
2022-09-11T06:06:02.805Z,18.20
2022-09-11T06:07:02.845Z,19.50
2022-09-11T06:08:02.794Z,18.80
2022-09-11T06:09:02.840Z,19.40
2022-09-11T06:10:03.581Z,17.10
2022-09-11T06:11:02.750Z,17.90
2022-09-11T06:12:02.779Z,17.80
2022-09-11T06:13:02.741Z,18.30
2022-09-11T06:14:02.740Z,17.60
2022-09-11T06:15:02.704Z,17.50
2022-09-11T06:16:02.694Z,17.10
2022-09-11T06:17:02.711Z,18.10
2022-09-11T06:18:02.683Z,18.10
2022-09-11T06:19:02.672Z,18.20
2022-09-11T06:20:02.655Z,17.10
2022-09-11T06:21:02.673Z,17.20
2022-09-11T06:22:02.625Z,18.30
2022-09-11T06:23:06.082Z,16.30
2022-09-11T06:24:03.623Z,17.50
2022-09-11T06:25:02.593Z,17.80
2022-09-11T06:26:02.590Z,17.00
2022-09-11T06:27:02.591Z,16.90
2022-09-11T06:28:02.588Z,17.80
2022-09-11T06:29:02.547Z,17.30
2022-09-11T06:30:02.541Z,16.80
2022-09-11T06:31:02.560Z,17.40
2022-09-11T06:32:02.528Z,17.70
2022-09-11T06:33:02.521Z,17.20
2022-09-11T06:34:02.496Z,17.80
2022-09-11T06:35:02.481Z,17.50
2022-09-11T06:36:02.493Z,18.20
2022-09-11T06:37:02.485Z,19.00
2022-09-11T06:38:02.460Z,17.70
2022-09-11T06:39:02.446Z,17.60
2022-09-11T06:40:02.503Z,20.10
2022-09-11T06:41:02.428Z,18.40
2022-09-11T06:42:02.431Z,18.80
2022-09-11T06:43:02.392Z,17.30
2022-09-11T06:44:02.405Z,19.10
2022-09-11T06:45:02.383Z,17.60
2022-09-11T06:46:02.394Z,19.40
2022-09-11T06:47:02.358Z,18.70
2022-09-11T06:48:02.368Z,19.10
2022-09-11T06:49:02.333Z,19.30
2022-09-11T06:50:02.345Z,18.70
2022-09-11T06:51:02.316Z,18.00
2022-09-11T06:52:02.295Z,18.10
2022-09-11T06:53:02.301Z,18.70
2022-09-11T06:54:02.283Z,17.80
2022-09-11T06:55:02.288Z,17.70
2022-09-11T06:56:02.252Z,17.40
2022-09-11T06:57:02.267Z,17.60
2022-09-11T06:58:02.243Z,18.10
2022-09-11T06:59:02.224Z,18.40
2022-09-11T07:00:02.243Z,18.30
2022-09-11T07:01:02.343Z,18.00
2022-09-11T07:02:02.351Z,16.90
2022-09-11T07:03:02.192Z,17.10
2022-09-11T07:04:02.174Z,17.30
2022-09-11T07:05:02.175Z,18.30
2022-09-11T07:06:02.139Z,18.50
2022-09-11T07:07:02.160Z,17.60
2022-09-11T07:08:02.125Z,18.20
2022-09-11T07:09:02.107Z,17.10
2022-09-11T07:10:02.107Z,19.50
2022-09-11T07:11:02.098Z,18.10
2022-09-11T07:12:02.088Z,16.90
2022-09-11T07:13:02.082Z,17.20
2022-09-11T07:14:02.051Z,17.30
2022-09-11T07:15:02.057Z,16.30
2022-09-11T07:16:02.052Z,16.80
2022-09-11T07:17:02.034Z,17.90
2022-09-11T07:18:02.067Z,17.40
2022-09-11T07:19:02.025Z,17.30
2022-09-11T07:20:01.993Z,17.40
2022-09-11T07:21:01.985Z,17.40
2022-09-11T07:22:02.012Z,17.10
2022-09-11T07:23:01.962Z,16.10
2022-09-11T07:24:01.958Z,18.30
2022-09-11T07:25:04.690Z,17.10
2022-09-11T07:26:02.923Z,17.40
2022-09-11T07:27:01.924Z,18.40
2022-09-11T07:28:01.905Z,17.90
2022-09-11T07:29:01.908Z,18.10
2022-09-11T07:30:01.881Z,19.60
2022-09-11T07:31:01.931Z,16.80
2022-09-11T07:32:01.905Z,16.70
2022-09-11T07:33:01.839Z,17.20
2022-09-11T07:34:01.847Z,17.80
2022-09-11T07:35:01.821Z,17.20
2022-09-11T07:36:01.812Z,17.40
2022-09-11T07:37:01.805Z,17.00
2022-09-11T07:38:01.802Z,17.60
2022-09-11T07:39:01.776Z,17.10
2022-09-11T07:40:01.839Z,17.40
2022-09-11T07:41:01.758Z,16.50
2022-09-11T07:42:01.761Z,15.90
2022-09-11T07:43:01.800Z,16.90
2022-09-11T07:44:01.732Z,16.70
2022-09-11T07:45:01.712Z,16.70
2022-09-11T07:46:01.733Z,16.50
2022-09-11T07:47:01.686Z,17.40
2022-09-11T07:48:01.704Z,15.60
2022-09-11T07:49:01.683Z,16.50
2022-09-11T07:50:01.667Z,14.70
2022-09-11T07:51:01.657Z,17.40
2022-09-11T07:52:01.657Z,16.60
2022-09-11T07:53:01.628Z,18.80
2022-09-11T07:54:01.626Z,17.60
2022-09-11T07:55:01.608Z,16.50
2022-09-11T07:56:01.608Z,16.80
2022-09-11T07:57:01.586Z,18.00
2022-09-11T07:58:01.572Z,16.30
2022-09-11T07:59:01.567Z,17.10
2022-09-11T08:00:01.556Z,16.90
2022-09-11T08:01:01.566Z,18.00
2022-09-11T08:02:01.577Z,15.70
2022-09-11T08:03:01.530Z,16.10
2022-09-11T08:04:01.537Z,17.00
2022-09-11T08:05:01.502Z,17.60
2022-09-11T08:06:01.475Z,16.90
2022-09-11T08:07:01.465Z,16.20
2022-09-11T08:08:01.462Z,16.90
2022-09-11T08:09:01.450Z,16.30
2022-09-11T08:10:23.698Z,16.80
2022-09-11T08:11:02.452Z,16.60
2022-09-11T08:12:01.409Z,16.30
2022-09-11T08:13:01.406Z,16.10
2022-09-11T08:14:01.400Z,16.60
2022-09-11T08:15:01.376Z,16.90
2022-09-11T08:16:01.390Z,16.90
2022-09-11T08:17:01.393Z,17.60
2022-09-11T08:18:01.364Z,16.80
2022-09-11T08:19:01.362Z,16.00
2022-09-11T08:20:01.350Z,17.20
2022-09-11T08:21:01.328Z,17.80
2022-09-11T08:22:01.345Z,17.20
2022-09-11T08:23:01.287Z,16.40
2022-09-11T08:24:01.295Z,16.80
2022-09-11T08:25:01.301Z,15.30
2022-09-11T08:26:01.261Z,16.60
2022-09-11T08:27:01.267Z,16.80
2022-09-11T08:28:01.246Z,16.10
2022-09-11T08:29:01.251Z,16.60
2022-09-11T08:30:01.217Z,16.80
2022-09-11T08:31:01.243Z,15.90
2022-09-11T08:32:02.511Z,15.80
2022-09-11T08:33:01.183Z,16.20
2022-09-11T08:34:01.180Z,16.00
2022-09-11T08:35:01.166Z,15.30
2022-09-11T08:36:01.174Z,15.30
2022-09-11T08:37:01.157Z,15.50
2022-09-11T08:38:01.122Z,15.80
2022-09-11T08:39:01.122Z,15.20
2022-09-11T08:40:01.176Z,15.30
2022-09-11T08:41:01.100Z,14.60
2022-09-11T08:42:01.093Z,15.60
2022-09-11T08:43:01.082Z,14.60
2022-09-11T08:44:01.055Z,15.50
2022-09-11T08:45:01.050Z,15.20
2022-09-11T08:46:01.132Z,15.10
2022-09-11T08:47:01.023Z,14.80
2022-09-11T08:48:01.009Z,15.50
2022-09-11T08:49:01.019Z,14.90
2022-09-11T08:50:00.987Z,14.80
2022-09-11T08:51:00.993Z,15.10
2022-09-11T08:52:00.988Z,15.40
2022-09-11T08:53:00.996Z,15.80
2022-09-11T08:54:00.951Z,15.20
2022-09-11T08:55:00.951Z,15.50
2022-09-11T08:56:00.929Z,15.60
2022-09-11T08:57:00.925Z,14.80
2022-09-11T08:58:00.900Z,15.00
2022-09-11T08:59:00.909Z,14.60
2022-09-11T09:00:00.880Z,15.50
2022-09-11T09:01:00.965Z,15.00
2022-09-11T09:02:00.882Z,14.20
2022-09-11T09:03:00.859Z,13.20
2022-09-11T09:04:00.836Z,14.70
2022-09-11T09:05:00.838Z,14.70
2022-09-11T09:06:00.892Z,14.90
2022-09-11T09:07:00.815Z,15.10
2022-09-11T09:08:00.810Z,13.70
2022-09-11T09:09:00.790Z,15.00
2022-09-11T09:10:00.774Z,13.90
2022-09-11T09:11:00.799Z,13.90
2022-09-11T09:12:00.760Z,14.30
2022-09-11T09:13:00.734Z,14.00
2022-09-11T09:14:00.725Z,13.80
2022-09-11T09:15:00.727Z,14.40
2022-09-11T09:16:00.750Z,14.50
2022-09-11T09:17:00.715Z,14.20
2022-09-11T09:18:00.683Z,14.50
2022-09-11T09:19:00.680Z,15.10
2022-09-11T09:20:00.680Z,14.70
2022-09-11T09:21:00.656Z,14.60
2022-09-11T09:22:00.658Z,14.60
2022-09-11T09:23:00.631Z,14.40
2022-09-11T09:24:00.647Z,14.80
2022-09-11T09:25:00.601Z,15.30
2022-09-11T09:26:00.604Z,15.60
2022-09-11T09:27:00.606Z,14.70
2022-09-11T09:28:00.568Z,13.60
2022-09-11T09:29:00.562Z,14.90
2022-09-11T09:30:00.565Z,14.60
2022-09-11T09:31:00.593Z,14.10
2022-09-11T09:32:00.600Z,15.20
2022-09-11T09:33:00.527Z,13.60
2022-09-11T09:34:00.508Z,13.80
2022-09-11T09:35:00.494Z,13.50
2022-09-11T09:36:00.508Z,14.30
2022-09-11T09:37:00.489Z,14.70
2022-09-11T09:38:00.467Z,14.50
2022-09-11T09:39:00.449Z,13.30
2022-09-11T09:40:00.526Z,13.80
2022-09-11T09:41:00.437Z,13.40
2022-09-11T09:42:00.426Z,13.30
2022-09-11T09:43:00.434Z,13.50
2022-09-11T09:44:00.423Z,14.30
2022-09-11T09:45:00.393Z,13.70
2022-09-11T09:46:00.442Z,11.80
2022-09-11T09:47:00.379Z,13.10
2022-09-11T09:48:00.358Z,12.70
2022-09-11T09:49:00.343Z,11.60
2022-09-11T09:50:00.351Z,11.80
2022-09-11T09:51:00.360Z,11.20
2022-09-11T09:52:04.239Z,11.80
2022-09-11T09:53:00.307Z,11.70
2022-09-11T09:54:00.309Z,13.20
2022-09-11T09:55:00.297Z,13.50
2022-09-11T09:56:00.292Z,12.60
2022-09-11T09:57:00.265Z,12.50
2022-09-11T09:58:00.266Z,13.40
2022-09-11T09:59:00.239Z,13.20
2022-09-11T10:00:00.236Z,13.60
2022-09-11T10:01:00.287Z,12.50
2022-09-11T10:02:00.372Z,12.60
2022-09-11T10:03:00.195Z,12.90
2022-09-11T10:04:00.222Z,12.70
2022-09-11T10:05:00.177Z,11.90
2022-09-11T10:06:00.157Z,12.70
2022-09-11T10:07:00.166Z,10.70
2022-09-11T10:08:00.152Z,12.00
2022-09-11T10:09:03.230Z,11.50
2022-09-11T10:10:00.129Z,11.30
2022-09-11T10:11:00.156Z,11.70
2022-09-11T10:12:00.123Z,11.50
2022-09-11T10:13:18.004Z,11.50
2022-09-11T10:14:01.087Z,12.10
2022-09-11T10:15:00.080Z,11.80
2022-09-11T10:16:00.139Z,12.10
2022-09-11T10:17:00.057Z,11.60
2022-09-11T10:18:00.035Z,11.60
2022-09-11T10:19:00.041Z,10.80
2022-09-11T10:20:00.019Z,11.00
2022-09-11T10:21:01.608Z,11.40
2022-09-11T10:21:59.999Z,11.50
2022-09-11T10:22:59.993Z,10.90
2022-09-11T10:23:59.969Z,11.30
2022-09-11T10:24:59.970Z,11.80
2022-09-11T10:25:59.950Z,12.10
2022-09-11T10:26:59.940Z,11.80
2022-09-11T10:27:59.942Z,11.80
2022-09-11T10:28:59.923Z,11.60
2022-09-11T10:29:59.933Z,11.70
2022-09-11T10:30:59.952Z,12.00
2022-09-11T10:31:59.887Z,12.60
2022-09-11T10:33:03.377Z,11.40
2022-09-11T10:33:59.855Z,11.90
2022-09-11T10:34:59.853Z,12.10
2022-09-11T10:35:59.863Z,12.00
2022-09-11T10:36:59.821Z,12.40
2022-09-11T10:37:59.838Z,12.90
2022-09-11T10:38:59.816Z,12.30
2022-09-11T10:39:59.834Z,12.70
2022-09-11T10:40:59.779Z,12.60
2022-09-11T10:41:59.814Z,14.10
2022-09-11T10:42:59.756Z,12.90
2022-09-11T10:43:59.768Z,12.40
2022-09-11T10:44:59.763Z,13.50
2022-09-11T10:45:59.784Z,13.60
2022-09-11T10:46:59.720Z,13.50
2022-09-11T10:47:59.795Z,14.20
2022-09-11T10:48:59.691Z,13.50
2022-09-11T10:49:59.679Z,13.90
2022-09-11T10:50:59.672Z,14.40
2022-09-11T10:51:59.687Z,13.30
2022-09-11T10:52:59.645Z,13.80
2022-09-11T10:53:59.654Z,15.60
2022-09-11T10:54:59.632Z,14.90
2022-09-11T10:55:59.614Z,14.50
2022-09-11T10:56:59.612Z,14.60
2022-09-11T10:57:59.645Z,15.70
2022-09-11T10:58:59.591Z,14.80
2022-09-11T10:59:59.600Z,13.40
2022-09-11T11:00:59.578Z,14.10
2022-09-11T11:01:59.563Z,14.00
2022-09-11T11:02:59.633Z,13.10
2022-09-11T11:03:59.542Z,14.50
2022-09-11T11:04:59.519Z,14.30
2022-09-11T11:05:59.522Z,14.00
2022-09-11T11:06:59.490Z,11.60
2022-09-11T11:07:59.495Z,12.00
2022-09-11T11:08:59.491Z,11.70
2022-09-11T11:09:59.481Z,11.70
2022-09-11T11:10:59.465Z,12.90
2022-09-11T11:11:59.459Z,13.10
2022-09-11T11:12:59.435Z,13.60
2022-09-11T11:13:59.484Z,11.80
2022-09-11T11:14:59.432Z,12.00
2022-09-11T11:15:59.463Z,12.90
2022-09-11T11:16:59.380Z,13.90
2022-09-11T11:17:59.368Z,13.10
2022-09-11T11:18:59.361Z,12.90
2022-09-11T11:19:59.446Z,11.70
2022-09-11T11:20:59.359Z,14.60
2022-09-11T11:21:59.337Z,12.90
2022-09-11T11:22:59.326Z,13.70
2022-09-11T11:23:59.313Z,14.70
2022-09-11T11:24:59.313Z,13.70
2022-09-11T11:25:59.303Z,11.80
2022-09-11T11:26:59.284Z,11.50
2022-09-11T11:27:59.264Z,11.90
2022-09-11T11:28:59.281Z,12.70
2022-09-11T11:29:59.252Z,12.80
2022-09-11T11:30:59.252Z,12.00
2022-09-11T11:31:59.255Z,12.90
2022-09-11T11:32:59.215Z,12.10
2022-09-11T11:33:59.223Z,12.00
2022-09-11T11:34:59.190Z,13.20
2022-09-11T11:35:59.183Z,12.60
2022-09-11T11:36:59.179Z,12.40
2022-09-11T11:37:59.166Z,11.40
2022-09-11T11:38:59.174Z,10.30
2022-09-11T11:39:59.197Z,12.90
2022-09-11T11:40:59.207Z,12.20
2022-09-11T11:41:59.128Z,12.70
2022-09-11T11:42:59.111Z,11.90
2022-09-11T11:43:59.104Z,12.80
2022-09-11T11:44:59.077Z,11.50
2022-09-11T11:45:59.125Z,12.60
2022-09-11T11:46:59.063Z,11.60
2022-09-11T11:47:59.084Z,11.30
2022-09-11T11:48:59.085Z,11.70
2022-09-11T11:49:59.042Z,11.70
2022-09-11T11:50:59.022Z,11.70
2022-09-11T11:51:59.009Z,10.80
2022-09-11T11:52:59.006Z,12.70
2022-09-11T11:53:58.993Z,10.90
2022-09-11T11:54:58.967Z,11.60
2022-09-11T11:55:58.974Z,10.20
2022-09-11T11:56:58.953Z,9.80
2022-09-11T11:57:58.938Z,10.10
2022-09-11T11:58:58.935Z,10.50
2022-09-11T11:59:58.919Z,10.80
2022-09-11T12:00:58.918Z,10.40
2022-09-11T12:01:58.939Z,10.90
2022-09-11T12:02:58.885Z,9.90
2022-09-11T12:03:58.928Z,10.00
2022-09-11T12:04:58.869Z,9.60
2022-09-11T12:05:58.872Z,9.60
2022-09-11T12:06:58.837Z,9.00
2022-09-11T12:07:58.835Z,8.80
2022-09-11T12:08:58.818Z,8.50
2022-09-11T12:09:58.823Z,8.70
2022-09-11T12:10:58.796Z,10.10
2022-09-11T12:11:58.802Z,8.90
2022-09-11T12:12:58.776Z,10.50
2022-09-11T12:13:58.763Z,9.40
2022-09-11T12:14:58.750Z,8.90
2022-09-11T12:15:58.788Z,8.80
2022-09-11T12:16:58.730Z,8.50
2022-09-11T12:17:58.727Z,7.90
2022-09-11T12:18:58.716Z,7.90
2022-09-11T12:19:58.713Z,9.70
2022-09-11T12:20:58.678Z,9.50
2022-09-11T12:21:58.680Z,9.60
2022-09-11T12:22:58.678Z,10.00
2022-09-11T12:23:58.668Z,9.50
2022-09-11T12:24:58.803Z,8.90
2022-09-11T12:25:58.642Z,9.70
2022-09-11T12:26:58.617Z,9.90
2022-09-11T12:27:58.608Z,9.60
2022-09-11T12:28:58.605Z,10.10
2022-09-11T12:29:58.601Z,9.10
2022-09-11T12:30:58.619Z,8.20
2022-09-11T12:31:58.571Z,8.40
2022-09-11T12:32:58.583Z,7.40
2022-09-11T12:33:58.559Z,8.80
2022-09-11T12:34:58.524Z,8.20
2022-09-11T12:35:58.560Z,8.50
2022-09-11T12:36:58.499Z,8.50
2022-09-11T12:37:58.539Z,8.90
2022-09-11T12:38:58.521Z,9.40
2022-09-11T12:39:58.512Z,8.60
2022-09-11T12:40:58.471Z,9.10
2022-09-11T12:41:58.452Z,8.90
2022-09-11T12:42:58.442Z,8.40
2022-09-11T12:43:58.436Z,8.80
2022-09-11T12:44:58.440Z,9.00
2022-09-11T12:45:58.447Z,8.70
2022-09-11T12:46:58.393Z,9.40
2022-09-11T12:47:58.384Z,9.50
2022-09-11T12:49:20.278Z,9.60
2022-09-11T12:49:59.372Z,8.20
2022-09-11T12:50:58.355Z,8.60
2022-09-11T12:51:58.379Z,8.70
2022-09-11T12:52:58.344Z,7.70
2022-09-11T12:53:58.328Z,8.50
2022-09-11T12:54:58.321Z,8.30
2022-09-11T12:55:58.311Z,8.10
2022-09-11T12:56:58.316Z,8.00